NCAR-RAP Real-Time Weather Data

Output produced by METARs form (30 April 2017  15:05 UTC)
found at http://weather.rap.ucar.edu/surface/
 
Conditions at: KMLB observed 30 April 2017  14:53 UTC
Temperature: 27.8°C (82°F)
Dewpoint: 21.1°C (70°F) [RH = 67%]
Pressure (altimeter): 30.13 inches Hg (1020.4 mb)
[Sea-level pressure: 1020.2 mb]
Winds: from the SE (140 degrees) at 17 MPH (15 knots; 7.8 m/s)
gusting to 25 MPH (22 knots; 11.4 m/s)
Visibility: 10 or more miles (16+ km)
Ceiling: at least 12,000 feet AGL
Clouds: scattered clouds at 1200 feet AGL
scattered clouds at 2200 feet AGL
Present Weather: no significant weather observed at this time
KMLB 301453Z 14015G22KT 10SM SCT012 SCT022 28/21 A3013 RMK AO2 SLP202 60000 T02780211 58003

Conditions at: KMLB observed 30 April 2017  13:53 UTC
Temperature: 28.3°C (83°F)
Dewpoint: 21.1°C (70°F) [RH = 65%]
Pressure (altimeter): 30.13 inches Hg (1020.4 mb)
[Sea-level pressure: 1020.3 mb]
Winds: from the ESE (120 degrees) at 18 MPH (16 knots; 8.3 m/s)
gusting to 28 MPH (24 knots; 12.5 m/s)
Visibility: 10 or more miles (16+ km)
Ceiling: at least 12,000 feet AGL
Clouds: scattered clouds at 1600 feet AGL
scattered clouds at 2200 feet AGL
Present Weather: no significant weather observed at this time
KMLB 301353Z COR 12016G24KT 10SM SCT016 SCT022 28/21 A3013 RMK AO2 SLP203 T02830211

Conditions at: KMLB observed 30 April 2017  13:00 UTC
Temperature: 26.7°C (80°F)
Dewpoint: 21.1°C (70°F) [RH = 71%]
Pressure (altimeter): 30.14 inches Hg (1020.7 mb)
Winds: from the SE (140 degrees) at 15 MPH (13 knots; 6.8 m/s)
gusting to 26 MPH (23 knots; 12.0 m/s)
Visibility: 10 or more miles (16+ km)
Ceiling: at least 12,000 feet AGL
Clouds: scattered clouds at 1200 feet AGL
scattered clouds at 2200 feet AGL
Present Weather: no significant weather observed at this time
KMLB 301300Z 14013G23KT 10SM SCT012 SCT022 27/21 A3014 RMK AO2 T02670211

Conditions at: KMLB observed 30 April 2017  12:53 UTC
Temperature: 27.2°C (81°F)
Dewpoint: 21.1°C (70°F) [RH = 69%]
Pressure (altimeter): 30.14 inches Hg (1020.7 mb)
[Sea-level pressure: 1020.6 mb]
Winds: from the SE (140 degrees) at 17 MPH (15 knots; 7.8 m/s)
Visibility: 10 or more miles (16+ km)
Ceiling: 2200 feet AGL
Clouds: scattered clouds at 1300 feet AGL
broken clouds at 2200 feet AGL
broken clouds at 3000 feet AGL
Present Weather: no significant weather observed at this time
KMLB 301253Z 14015KT 10SM SCT013 BKN022 BKN030 27/21 A3014 RMK AO2 RAE1159 SLP206 P0000 T02720211

Conditions at: KMLB observed 30 April 2017  11:53 UTC
Temperature: 25.6°C (78°F)
Dewpoint: 21.1°C (70°F) [RH = 76%]
Pressure (altimeter): 30.14 inches Hg (1020.7 mb)
[Sea-level pressure: 1020.5 mb]
Winds: from the SSE (150 degrees) at 15 MPH (13 knots; 6.8 m/s)
gusting to 25 MPH (22 knots; 11.4 m/s)
Visibility: 10 or more miles (16+ km)
Ceiling: 2200 feet AGL
Clouds: scattered clouds at 1300 feet AGL
broken clouds at 2200 feet AGL
broken clouds at 3000 feet AGL
Present Weather: -RA  (light rain)
KMLB 301153Z 15013G22KT 10SM -RA SCT013 BKN022 BKN030 26/21 A3014 RMK AO2 RAB50 SLP205 P0000 60001 70001 T02560211 10261 20250 53014

Conditions at: KMLB observed 30 April 2017  10:53 UTC
Temperature: 25.0°C (77°F)
Dewpoint: 21.1°C (70°F) [RH = 79%]
Pressure (altimeter): 30.13 inches Hg (1020.4 mb)
[Sea-level pressure: 1020.1 mb]
Winds: from the SSE (150 degrees) at 8 MPH (7 knots; 3.6 m/s)
Visibility: 10 or more miles (16+ km)
Ceiling: at least 12,000 feet AGL
Clouds: scattered clouds at 2400 feet AGL
Present Weather: no significant weather observed at this time
KMLB 301053Z COR 15007KT 10SM SCT024 25/21 A3013 RMK AO2 SLP201 T02500211

Conditions at: KMLB observed 30 April 2017  09:53 UTC
Temperature: 25.6°C (78°F)
Dewpoint: 21.1°C (70°F) [RH = 76%]
Pressure (altimeter): 30.11 inches Hg (1019.7 mb)
[Sea-level pressure: 1019.4 mb]
Winds: from the SE (140 degrees) at 13 MPH (11 knots; 5.7 m/s)
gusting to 23 MPH (20 knots; 10.4 m/s)
Visibility: 10 or more miles (16+ km)
Ceiling: at least 12,000 feet AGL
Clouds: few clouds at 2000 feet AGL
Present Weather: no significant weather observed at this time
KMLB 300953Z 14011G20KT 10SM FEW020 26/21 A3011 RMK AO2 SLP194 T02560211

Conditions at: KMLB observed 30 April 2017  08:53 UTC
Temperature: 25.6°C (78°F)
Dewpoint: 21.1°C (70°F) [RH = 76%]
Pressure (altimeter): 30.10 inches Hg (1019.4 mb)
[Sea-level pressure: 1019.1 mb]
Winds: from the SE (140 degrees) at 15 MPH (13 knots; 6.8 m/s)
Visibility: 10 or more miles (16+ km)
Ceiling: at least 12,000 feet AGL
Clouds: few clouds at 2000 feet AGL
Present Weather: automated observation with no human augmentation;
there may or may not be significant weather present at this time
KMLB 300853Z AUTO 14013KT 10SM FEW020 26/21 A3010 RMK AO2 SLP191 60001 T02560211 55005

Conditions at: KMLB observed 30 April 2017  07:53 UTC
Temperature: 25.0°C (77°F)
Dewpoint: 22.2°C (72°F) [RH = 84%]
Pressure (altimeter): 30.10 inches Hg (1019.4 mb)
[Sea-level pressure: 1019.1 mb]
Winds: from the SE (140 degrees) at 15 MPH (13 knots; 6.8 m/s)
Visibility: 10 or more miles (16+ km)
Ceiling: at least 12,000 feet AGL
Clouds: scattered clouds at 2200 feet AGL
scattered clouds at 5500 feet AGL
Present Weather: automated observation with no human augmentation;
there may or may not be significant weather present at this time
KMLB 300753Z AUTO 14013KT 10SM SCT022 SCT055 25/22 A3010 RMK AO2 RAB0656E35 SLP191 P0001 T02500222

Conditions at: KMLB observed 30 April 2017  06:53 UTC
Temperature: 25.6°C (78°F)
Dewpoint: 22.2°C (72°F) [RH = 82%]
Pressure (altimeter): 30.10 inches Hg (1019.4 mb)
[Sea-level pressure: 1019.3 mb]
Winds: from the SE (130 degrees) at 16 MPH (14 knots; 7.3 m/s)
gusting to 23 MPH (20 knots; 10.4 m/s)
Visibility: 10 or more miles (16+ km)
Ceiling: at least 12,000 feet AGL
Clouds: few clouds at 2400 feet AGL
scattered clouds at 3500 feet AGL
Present Weather: automated observation with no human augmentation;
there may or may not be significant weather present at this time
KMLB 300653Z AUTO 13014G20KT 10SM FEW024 SCT035 26/22 A3010 RMK AO2 SLP193 T02560222

Conditions at: KMLB observed 30 April 2017  06:37 UTC
Temperature: 25.6°C (78°F)
Dewpoint: 22.2°C (72°F) [RH = 82%]
Pressure (altimeter): 30.11 inches Hg (1019.7 mb)
Winds: from the ESE (120 degrees) at 14 MPH (12 knots; 6.2 m/s)
gusting to 23 MPH (20 knots; 10.4 m/s)
Visibility: 10 or more miles (16+ km)
Ceiling: at least 12,000 feet AGL
Clouds: few clouds at 2400 feet AGL
Present Weather: automated observation with no human augmentation;
there may or may not be significant weather present at this time
KMLB 300637Z AUTO 12012G20KT 10SM FEW024 26/22 A3011 RMK AO2 T02560222

Conditions at: KMLB observed 30 April 2017  06:02 UTC
Temperature: 26.1°C (79°F)
Dewpoint: 22.8°C (73°F) [RH = 82%]
Pressure (altimeter): 30.11 inches Hg (1019.7 mb)
Winds: from the ESE (120 degrees) at 16 MPH (14 knots; 7.3 m/s)
gusting to 25 MPH (22 knots; 11.4 m/s)
Visibility: 10 or more miles (16+ km)
Ceiling: 1800 feet AGL
Clouds: broken clouds at 1800 feet AGL
broken clouds at 2800 feet AGL
overcast cloud deck at 7000 feet AGL
Present Weather: automated observation with no human augmentation;
there may or may not be significant weather present at this time
KMLB 300602Z AUTO 12014G22KT 10SM BKN018 BKN028 OVC070 26/23 A3011 RMK AO2 T02610228

Conditions at: KMLB observed 30 April 2017  05:53 UTC
Temperature: 26.1°C (79°F)
Dewpoint: 22.8°C (73°F) [RH = 82%]
Pressure (altimeter): 30.11 inches Hg (1019.7 mb)
[Sea-level pressure: 1019.7 mb]
Winds: from the ESE (120 degrees) at 16 MPH (14 knots; 7.3 m/s)
gusting to 24 MPH (21 knots; 10.9 m/s)
Visibility: 10 or more miles (16+ km)
Ceiling: 3000 feet AGL
Clouds: scattered clouds at 1800 feet AGL
broken clouds at 3000 feet AGL
broken clouds at 6500 feet AGL
Present Weather: automated observation with no human augmentation;
there may or may not be significant weather present at this time
KMLB 300553Z AUTO 12014G21KT 10SM SCT018 BKN030 BKN065 26/23 A3011 RMK AO2 SLP197 60000 T02610228 10267 20256 58007

Conditions at: KMLB observed 30 April 2017  05:35 UTC
Temperature: 26.1°C (79°F)
Dewpoint: 22.2°C (72°F) [RH = 79%]
Pressure (altimeter): 30.12 inches Hg (1020.1 mb)
Winds: from the ESE (110 degrees) at 17 MPH (15 knots; 7.8 m/s)
gusting to 24 MPH (21 knots; 10.9 m/s)
Visibility: 10 or more miles (16+ km)
Ceiling: 7000 feet AGL
Clouds: few clouds at 1600 feet AGL
scattered clouds at 2700 feet AGL
overcast cloud deck at 7000 feet AGL
Present Weather: automated observation with no human augmentation;
there may or may not be significant weather present at this time
KMLB 300535Z AUTO 11015G21KT 10SM FEW016 SCT027 OVC070 26/22 A3012 RMK AO2 T02610222

Conditions at: KMLB observed 30 April 2017  04:53 UTC
Temperature: 26.1°C (79°F)
Dewpoint: 22.2°C (72°F) [RH = 79%]
Pressure (altimeter): 30.13 inches Hg (1020.4 mb)
[Sea-level pressure: 1020.3 mb]
Winds: from the SE (130 degrees) at 15 MPH (13 knots; 6.8 m/s)
gusting to 25 MPH (22 knots; 11.4 m/s)
Visibility: 10 or more miles (16+ km)
Ceiling: 2300 feet AGL
Clouds: scattered clouds at 1600 feet AGL
broken clouds at 2300 feet AGL
broken clouds at 2900 feet AGL
Present Weather: automated observation with no human augmentation;
there may or may not be significant weather present at this time
KMLB 300453Z AUTO 13013G22KT 10SM SCT016 BKN023 BKN029 26/22 A3013 RMK AO2 SLP203 T02610222 403110256

Conditions at: KMLB observed 30 April 2017  03:53 UTC
Temperature: 26.1°C (79°F)
Dewpoint: 22.8°C (73°F) [RH = 82%]
Pressure (altimeter): 30.14 inches Hg (1020.7 mb)
[Sea-level pressure: 1020.6 mb]
Winds: from the ESE (110 degrees) at 16 MPH (14 knots; 7.3 m/s)
Visibility: 10 or more miles (16+ km)
Ceiling: 4600 feet AGL
Clouds: scattered clouds at 1700 feet AGL
broken clouds at 4600 feet AGL
overcast cloud deck at 6500 feet AGL
Present Weather: no significant weather observed at this time
KMLB 300353Z 11014KT 10SM SCT017 BKN046 OVC065 26/23 A3014 RMK AO2 RAB27E39 SLP206 P0000 T02610228

Conditions at: KMLB observed 30 April 2017  02:53 UTC
Temperature: 26.1°C (79°F)
Dewpoint: 22.8°C (73°F) [RH = 82%]
Pressure (altimeter): 30.14 inches Hg (1020.7 mb)
[Sea-level pressure: 1020.4 mb]
Winds: from the ESE (120 degrees) at 17 MPH (15 knots; 7.8 m/s)
gusting to 22 MPH (19 knots; 9.9 m/s)
Visibility: 10 or more miles (16+ km)
Ceiling: 6500 feet AGL
Clouds: few clouds at 1600 feet AGL
broken clouds at 6500 feet AGL
Present Weather: no significant weather observed at this time
KMLB 300253Z 12015G19KT 10SM FEW016 BKN065 26/23 A3014 RMK AO2 SLP204 T02610228 51005

Conditions at: KMLB observed 30 April 2017  01:53 UTC
Temperature: 26.1°C (79°F)
Dewpoint: 22.2°C (72°F) [RH = 79%]
Pressure (altimeter): 30.13 inches Hg (1020.4 mb)
[Sea-level pressure: 1020.3 mb]
Winds: from the ESE (110 degrees) at 14 MPH (12 knots; 6.2 m/s)
Visibility: 10 or more miles (16+ km)
Ceiling: at least 12,000 feet AGL
Clouds: scattered clouds at 1700 feet AGL
Present Weather: no significant weather observed at this time
KMLB 300153Z 11012KT 10SM SCT017 26/22 A3013 RMK AO2 SLP203 T02610222

Conditions at: KMLB observed 30 April 2017  00:53 UTC
Temperature: 26.1°C (79°F)
Dewpoint: 22.2°C (72°F) [RH = 79%]
Pressure (altimeter): 30.13 inches Hg (1020.4 mb)
[Sea-level pressure: 1020.2 mb]
Winds: from the E (100 degrees) at 15 MPH (13 knots; 6.8 m/s)
Visibility: 10 or more miles (16+ km)
Ceiling: at least 12,000 feet AGL
Clouds: scattered clouds at 1800 feet AGL
Present Weather: no significant weather observed at this time
KMLB 300053Z 10013KT 10SM SCT018 26/22 A3013 RMK AO2 SLP202 T02610222

Conditions at: KMLB observed 29 April 2017  23:53 UTC
Temperature: 26.7°C (80°F)
Dewpoint: 22.2°C (72°F) [RH = 76%]
Pressure (altimeter): 30.12 inches Hg (1020.1 mb)
[Sea-level pressure: 1020.0 mb]
Winds: from the ESE (110 degrees) at 16 MPH (14 knots; 7.3 m/s)
gusting to 22 MPH (19 knots; 9.9 m/s)
Visibility: 10 or more miles (16+ km)
Ceiling: at least 12,000 feet AGL
Clouds: scattered clouds at 1800 feet AGL
scattered clouds at 3600 feet AGL
Present Weather: no significant weather observed at this time
KMLB 292353Z 11014G19KT 10SM SCT018 SCT036 27/22 A3012 RMK AO2 SLP200 T02670222 10311 20267 50001

Conditions at: KMLB observed 29 April 2017  23:21 UTC
Temperature: 26.7°C (80°F)
Dewpoint: 21.7°C (71°F) [RH = 74%]
Pressure (altimeter): 30.12 inches Hg (1020.1 mb)
Winds: from the ESE (120 degrees) at 14 MPH (12 knots; 6.2 m/s)
Visibility: 10 or more miles (16+ km)
Ceiling: at least 12,000 feet AGL
Clouds: scattered clouds at 2000 feet AGL
Present Weather: no significant weather observed at this time
KMLB 292321Z 12012KT 10SM SCT020 27/22 A3012 RMK AO2 T02670217

Conditions at: KMLB observed 29 April 2017  22:53 UTC
Temperature: 27.2°C (81°F)
Dewpoint: 21.7°C (71°F) [RH = 72%]
Pressure (altimeter): 30.12 inches Hg (1020.1 mb)
[Sea-level pressure: 1020.0 mb]
Winds: from the ESE (110 degrees) at 15 MPH (13 knots; 6.8 m/s)
Visibility: 10 or more miles (16+ km)
Ceiling: 2100 feet AGL
Clouds: broken clouds at 2100 feet AGL
broken clouds at 3100 feet AGL
Present Weather: no significant weather observed at this time
KMLB 292253Z 11013KT 10SM BKN021 BKN031 27/22 A3012 RMK AO2 SLP200 T02720217

Conditions at: KMLB observed 29 April 2017  22:14 UTC
Temperature: 27.8°C (82°F)
Dewpoint: 21.1°C (70°F) [RH = 67%]
Pressure (altimeter): 30.13 inches Hg (1020.4 mb)
Winds: from the ESE (120 degrees) at 15 MPH (13 knots; 6.8 m/s)
Visibility: 10 or more miles (16+ km)
Ceiling: 2400 feet AGL
Clouds: broken clouds at 2400 feet AGL
broken clouds at 3300 feet AGL
Present Weather: no significant weather observed at this time
KMLB 292214Z 12013KT 10SM BKN024 BKN033 28/21 A3013 RMK AO2 T02780211

Conditions at: KMLB observed 29 April 2017  21:53 UTC
Temperature: 28.3°C (83°F)
Dewpoint: 20.6°C (69°F) [RH = 63%]
Pressure (altimeter): 30.12 inches Hg (1020.1 mb)
[Sea-level pressure: 1019.9 mb]
Winds: from the ESE (120 degrees) at 15 MPH (13 knots; 6.8 m/s)
gusting to 24 MPH (21 knots; 10.9 m/s)
Visibility: 10 or more miles (16+ km)
Ceiling: at least 12,000 feet AGL
Clouds: few clouds at 2400 feet AGL
Present Weather: no significant weather observed at this time
KMLB 292153Z 12013G21KT 10SM FEW024 28/21 A3012 RMK AO2 SLP199 T02830206

Conditions at: KMLB observed 29 April 2017  20:53 UTC
Temperature: 28.9°C (84°F)
Dewpoint: 21.1°C (70°F) [RH = 63%]
Pressure (altimeter): 30.12 inches Hg (1020.1 mb)
[Sea-level pressure: 1019.9 mb]
Winds: from the ESE (110 degrees) at 17 MPH (15 knots; 7.8 m/s)
gusting to 26 MPH (23 knots; 12.0 m/s)
Visibility: 10 or more miles (16+ km)
Ceiling: at least 12,000 feet AGL
Clouds: few clouds at 2400 feet AGL
Present Weather: no significant weather observed at this time
KMLB 292053Z 11015G23KT 10SM FEW024 29/21 A3012 RMK AO2 SLP199 T02890211 56014

Conditions at: KMLB observed 29 April 2017  19:53 UTC
Temperature: 29.4°C (85°F)
Dewpoint: 20.6°C (69°F) [RH = 59%]
Pressure (altimeter): 30.13 inches Hg (1020.4 mb)
[Sea-level pressure: 1020.2 mb]
Winds: from the SE (130 degrees) at 18 MPH (16 knots; 8.3 m/s)
Visibility: 10 or more miles (16+ km)
Ceiling: at least 12,000 feet AGL
Clouds: scattered clouds at 2300 feet AGL
Present Weather: no significant weather observed at this time
KMLB 291953Z 13016KT 10SM SCT023 29/21 A3013 RMK AO2 SLP202 T02940206

Conditions at: KMLB observed 29 April 2017  18:53 UTC
Temperature: 30.0°C (86°F)
Dewpoint: 20.6°C (69°F) [RH = 57%]
Pressure (altimeter): 30.15 inches Hg (1021.1 mb)
[Sea-level pressure: 1020.7 mb]
Winds: from the SE (130 degrees) at 20 MPH (17 knots; 8.8 m/s)
gusting to 28 MPH (24 knots; 12.5 m/s)
Visibility: 10 or more miles (16+ km)
Ceiling: at least 12,000 feet AGL
Clouds: scattered clouds at 2300 feet AGL
Present Weather: automated observation with no human augmentation;
there may or may not be significant weather present at this time
KMLB 291853Z AUTO 13017G24KT 10SM SCT023 30/21 A3015 RMK AO2 SLP207 T03000206

Conditions at: KMLB observed 29 April 2017  17:53 UTC
Temperature: 30.6°C (87°F)
Dewpoint: 20.6°C (69°F) [RH = 55%]
Pressure (altimeter): 30.16 inches Hg (1021.4 mb)
[Sea-level pressure: 1021.3 mb]
Winds: from the ESE (110 degrees) at 15 MPH (13 knots; 6.8 m/s)
gusting to 28 MPH (24 knots; 12.5 m/s)
Visibility: 10 or more miles (16+ km)
Ceiling: at least 12,000 feet AGL
Clouds: few clouds at 3500 feet AGL
Present Weather: no significant weather observed at this time
KMLB 291753Z 11013G24KT 10SM FEW035 31/21 A3016 RMK AO2 SLP213 T03060206 10306 20267 58007

Conditions at: KMLB observed 29 April 2017  16:53 UTC
Temperature: 29.4°C (85°F)
Dewpoint: 20.0°C (68°F) [RH = 57%]
Pressure (altimeter): 30.17 inches Hg (1021.8 mb)
[Sea-level pressure: 1021.6 mb]
Winds: from the SE (130 degrees) at 17 MPH (15 knots; 7.8 m/s)
gusting to 24 MPH (21 knots; 10.9 m/s)
Visibility: 10 or more miles (16+ km)
Ceiling: at least 12,000 feet AGL
Clouds: scattered clouds at 3600 feet AGL
Present Weather: no significant weather observed at this time
KMLB 291653Z 13015G21KT 10SM SCT036 29/20 A3017 RMK AO2 SLP216 T02940200

Conditions at: KMLB observed 29 April 2017  15:53 UTC
Temperature: 29.4°C (85°F)
Dewpoint: 20.6°C (69°F) [RH = 59%]
Pressure (altimeter): 30.18 inches Hg (1022.1 mb)
[Sea-level pressure: 1021.9 mb]
Winds: from the SE (130 degrees) at 18 MPH (16 knots; 8.3 m/s)
gusting to 25 MPH (22 knots; 11.4 m/s)
Visibility: 10 or more miles (16+ km)
Ceiling: at least 12,000 feet AGL
Clouds: scattered clouds at 3600 feet AGL
Present Weather: no significant weather observed at this time
KMLB 291553Z 13016G22KT 10SM SCT036 29/21 A3018 RMK AO2 SLP219 T02940206

Conditions at: KMLB observed 29 April 2017  14:53 UTC
Temperature: 29.4°C (85°F)
Dewpoint: 20.6°C (69°F) [RH = 59%]
Pressure (altimeter): 30.18 inches Hg (1022.1 mb)
[Sea-level pressure: 1021.9 mb]
Winds: from the SE (130 degrees) at 18 MPH (16 knots; 8.3 m/s)
gusting to 24 MPH (21 knots; 10.9 m/s)
Visibility: 10 or more miles (16+ km)
Ceiling: at least 12,000 feet AGL
Clouds: scattered clouds at 2000 feet AGL
Present Weather: no significant weather observed at this time
KMLB 291453Z 13016G21KT 10SM SCT020 29/21 A3018 RMK AO2 SLP219 T02940206 53009

Conditions at: KMLB observed 29 April 2017  13:53 UTC
Temperature: 28.3°C (83°F)
Dewpoint: 21.1°C (70°F) [RH = 65%]
Pressure (altimeter): 30.17 inches Hg (1021.8 mb)
[Sea-level pressure: 1021.4 mb]
Winds: from the SE (130 degrees) at 17 MPH (15 knots; 7.8 m/s)
gusting to 25 MPH (22 knots; 11.4 m/s)
Visibility: 10 or more miles (16+ km)
Ceiling: 3100 feet AGL
Clouds: scattered clouds at 1900 feet AGL
broken clouds at 3100 feet AGL
Present Weather: no significant weather observed at this time
KMLB 291353Z 13015G22KT 10SM SCT019 BKN031 28/21 A3017 RMK AO2 SLP214 T02830211

Conditions at: KMLB observed 29 April 2017  12:53 UTC
Temperature: 27.8°C (82°F)
Dewpoint: 21.7°C (71°F) [RH = 69%]
Pressure (altimeter): 30.16 inches Hg (1021.4 mb)
[Sea-level pressure: 1021.2 mb]
Winds: from the SE (140 degrees) at 16 MPH (14 knots; 7.3 m/s)
Visibility: 10 or more miles (16+ km)
Ceiling: 1900 feet AGL
Clouds: scattered clouds at 1700 feet AGL
broken clouds at 1900 feet AGL
Present Weather: no significant weather observed at this time
KMLB 291253Z 14014KT 10SM SCT017 BKN019 28/22 A3016 RMK AO2 SLP212 T02780217

Conditions at: KMLB observed 29 April 2017  11:53 UTC
Temperature: 26.7°C (80°F)
Dewpoint: 21.7°C (71°F) [RH = 74%]
Pressure (altimeter): 30.16 inches Hg (1021.4 mb)
[Sea-level pressure: 1021.1 mb]
Winds: from the SE (130 degrees) at 9 MPH (8 knots; 4.2 m/s)
gusting to 20 MPH (17 knots; 8.8 m/s)
Visibility: 10 or more miles (16+ km)
Ceiling: at least 12,000 feet AGL
Clouds: sky clear below 12,000 feet AGL
Present Weather: no significant weather observed at this time
KMLB 291153Z 13008G17KT 10SM CLR 27/22 A3016 RMK AO2 SLP211 T02670217 10267 20256 53015

Conditions at: KMLB observed 29 April 2017  10:53 UTC
Temperature: 26.1°C (79°F)
Dewpoint: 21.7°C (71°F) [RH = 77%]
Pressure (altimeter): 30.14 inches Hg (1020.7 mb)
[Sea-level pressure: 1020.4 mb]
Winds: from the SE (140 degrees) at 14 MPH (12 knots; 6.2 m/s)
gusting to 20 MPH (17 knots; 8.8 m/s)
Visibility: 10 or more miles (16+ km)
Ceiling: at least 12,000 feet AGL
Clouds: sky clear below 12,000 feet AGL
Present Weather: no significant weather observed at this time
KMLB 291053Z 14012G17KT 10SM CLR 26/22 A3014 RMK AO2 SLP204 T02610217

Conditions at: KMLB observed 29 April 2017  09:53 UTC
Temperature: 25.6°C (78°F)
Dewpoint: 22.2°C (72°F) [RH = 82%]
Pressure (altimeter): 30.12 inches Hg (1020.1 mb)
[Sea-level pressure: 1019.9 mb]
Winds: from the SE (140 degrees) at 10 MPH (9 knots; 4.7 m/s)
Visibility: 10 or more miles (16+ km)
Ceiling: at least 12,000 feet AGL
Clouds: few clouds at 1700 feet AGL
Present Weather: no significant weather observed at this time
KMLB 290953Z 14009KT 10SM FEW017 26/22 A3012 RMK AO2 SLP199 T02560222

Conditions at: KMLB observed 29 April 2017  08:53 UTC
Temperature: 26.1°C (79°F)
Dewpoint: 22.8°C (73°F) [RH = 82%]
Pressure (altimeter): 30.11 inches Hg (1019.7 mb)
[Sea-level pressure: 1019.6 mb]
Winds: from the SE (130 degrees) at 10 MPH (9 knots; 4.7 m/s)
Visibility: 10 or more miles (16+ km)
Ceiling: at least 12,000 feet AGL
Clouds: few clouds at 1600 feet AGL
Present Weather: automated observation with no human augmentation;
there may or may not be significant weather present at this time
KMLB 290853Z AUTO 13009KT 10SM FEW016 26/23 A3011 RMK AO2 SLP196 T02610228 55004

Conditions at: KMLB observed 29 April 2017  07:53 UTC
Temperature: 26.1°C (79°F)
Dewpoint: 22.8°C (73°F) [RH = 82%]
Pressure (altimeter): 30.11 inches Hg (1019.7 mb)
[Sea-level pressure: 1019.5 mb]
Winds: from the ESE (120 degrees) at 10 MPH (9 knots; 4.7 m/s)
Visibility: 10 or more miles (16+ km)
Ceiling: at least 12,000 feet AGL
Clouds: sky clear below 12,000 feet AGL
Present Weather: automated observation with no human augmentation;
there may or may not be significant weather present at this time
KMLB 290753Z AUTO 12009KT 10SM CLR 26/23 A3011 RMK AO2 SLP195 T02610228

Conditions at: KMLB observed 29 April 2017  06:53 UTC
Temperature: 26.1°C (79°F)
Dewpoint: 23.3°C (74°F) [RH = 85%]
Pressure (altimeter): 30.11 inches Hg (1019.7 mb)
[Sea-level pressure: 1019.5 mb]
Winds: from the ESE (120 degrees) at 10 MPH (9 knots; 4.7 m/s)
Visibility: 10 or more miles (16+ km)
Ceiling: at least 12,000 feet AGL
Clouds: sky clear below 12,000 feet AGL
Present Weather: automated observation with no human augmentation;
there may or may not be significant weather present at this time
KMLB 290653Z AUTO 12009KT 10SM CLR 26/23 A3011 RMK AO2 SLP195 T02610233

Conditions at: KMLB observed 29 April 2017  06:27 UTC
Temperature: 26.1°C (79°F)
Dewpoint: 23.3°C (74°F) [RH = 85%]
Pressure (altimeter): 30.12 inches Hg (1020.1 mb)
Winds: from the ESE (120 degrees) at 13 MPH (11 knots; 5.7 m/s)
Visibility: 10 or more miles (16+ km)
Ceiling: at least 12,000 feet AGL
Clouds: few clouds at 1400 feet AGL
scattered clouds at 2000 feet AGL
Present Weather: automated observation with no human augmentation;
there may or may not be significant weather present at this time
KMLB 290627Z AUTO 12011KT 10SM FEW014 SCT020 26/23 A3012 RMK AO2 T02610233

Conditions at: KMLB observed 29 April 2017  05:53 UTC
Temperature: 26.7°C (80°F)
Dewpoint: 23.9°C (75°F) [RH = 85%]
Pressure (altimeter): 30.13 inches Hg (1020.4 mb)
[Sea-level pressure: 1020.1 mb]
Winds: from the SE (130 degrees) at 13 MPH (11 knots; 5.7 m/s)
Visibility: 10 or more miles (16+ km)
Ceiling: 2400 feet AGL
Clouds: few clouds at 1300 feet AGL
broken clouds at 2400 feet AGL
overcast cloud deck at 3000 feet AGL
Present Weather: automated observation with no human augmentation;
there may or may not be significant weather present at this time
KMLB 290553Z AUTO 13011KT 10SM FEW013 BKN024 OVC030 27/24 A3013 RMK AO2 SLP201 T02670239 10272 20261 58001

Conditions at: KMLB observed 29 April 2017  05:42 UTC
Temperature: 26.7°C (80°F)
Dewpoint: 23.9°C (75°F) [RH = 85%]
Pressure (altimeter): 30.12 inches Hg (1020.1 mb)
Winds: from the ESE (120 degrees) at 15 MPH (13 knots; 6.8 m/s)
Visibility: 10 or more miles (16+ km)
Ceiling: 2700 feet AGL
Clouds: scattered clouds at 1300 feet AGL
broken clouds at 2700 feet AGL
overcast cloud deck at 3500 feet AGL
Present Weather: automated observation with no human augmentation;
there may or may not be significant weather present at this time
KMLB 290542Z AUTO 12013KT 10SM SCT013 BKN027 OVC035 27/24 A3012 RMK AO2 T02670239

Conditions at: KMLB observed 29 April 2017  04:53 UTC
Temperature: 26.7°C (80°F)
Dewpoint: 23.9°C (75°F) [RH = 85%]
Pressure (altimeter): 30.13 inches Hg (1020.4 mb)
[Sea-level pressure: 1020.1 mb]
Winds: from the ESE (120 degrees) at 10 MPH (9 knots; 4.7 m/s)
Visibility: 10 or more miles (16+ km)
Ceiling: 1200 feet AGL
Clouds: broken clouds at 1200 feet AGL
broken clouds at 2400 feet AGL
Present Weather: automated observation with no human augmentation;
there may or may not be significant weather present at this time
KMLB 290453Z AUTO 12009KT 10SM BKN012 BKN024 27/24 A3013 RMK AO2 SLP201 T02670239 403110244

Conditions at: KMLB observed 29 April 2017  04:23 UTC
Temperature: 26.7°C (80°F)
Dewpoint: 23.9°C (75°F) [RH = 85%]
Pressure (altimeter): 30.13 inches Hg (1020.4 mb)
Winds: from the ESE (120 degrees) at 12 MPH (10 knots; 5.2 m/s)
Visibility: 10 or more miles (16+ km)
Ceiling: 1200 feet AGL
Clouds: broken clouds at 1200 feet AGL
broken clouds at 2200 feet AGL
Present Weather: automated observation with no human augmentation;
there may or may not be significant weather present at this time
KMLB 290423Z AUTO 12010KT 10SM BKN012 BKN022 27/24 A3013 RMK AO2 T02670239

Conditions at: KMLB observed 29 April 2017  03:53 UTC
Temperature: 26.7°C (80°F)
Dewpoint: 23.9°C (75°F) [RH = 85%]
Pressure (altimeter): 30.13 inches Hg (1020.4 mb)
[Sea-level pressure: 1020.2 mb]
Winds: from the ESE (120 degrees) at 9 MPH (8 knots; 4.2 m/s)
Visibility: 10 or more miles (16+ km)
Ceiling: at least 12,000 feet AGL
Clouds: few clouds at 1200 feet AGL
few clouds at 1800 feet AGL
Present Weather: automated observation with no human augmentation;
there may or may not be significant weather present at this time
KMLB 290353Z AUTO 12008KT 10SM FEW012 FEW018 27/24 A3013 RMK AO2 SLP202 T02670239

Conditions at: KMLB observed 29 April 2017  02:53 UTC
Temperature: 26.7°C (80°F)
Dewpoint: 23.9°C (75°F) [RH = 85%]
Pressure (altimeter): 30.13 inches Hg (1020.4 mb)
[Sea-level pressure: 1020.1 mb]
Winds: from the ESE (120 degrees) at 13 MPH (11 knots; 5.7 m/s)
Visibility: 10 or more miles (16+ km)
Ceiling: at least 12,000 feet AGL
Clouds: scattered clouds at 1200 feet AGL
scattered clouds at 1700 feet AGL
Present Weather: no significant weather observed at this time
KMLB 290253Z 12011KT 10SM SCT012 SCT017 27/24 A3013 RMK AO2 SLP201 T02670239 51015

Conditions at: KMLB observed 29 April 2017  02:46 UTC
Temperature: 26.7°C (80°F)
Dewpoint: 23.9°C (75°F) [RH = 85%]
Pressure (altimeter): 30.13 inches Hg (1020.4 mb)
Winds: from the ESE (120 degrees) at 14 MPH (12 knots; 6.2 m/s)
Visibility: 10 or more miles (16+ km)
Ceiling: 1500 feet AGL
Clouds: broken clouds at 1500 feet AGL
Present Weather: no significant weather observed at this time
KMLB 290246Z 12012KT 10SM BKN015 27/24 A3013 RMK AO2 T02670239

Conditions at: KMLB observed 29 April 2017  01:53 UTC
Temperature: 26.7°C (80°F)
Dewpoint: 23.9°C (75°F) [RH = 85%]
Pressure (altimeter): 30.12 inches Hg (1020.1 mb)
[Sea-level pressure: 1019.7 mb]
Winds: from the SE (130 degrees) at 14 MPH (12 knots; 6.2 m/s)
Visibility: 10 or more miles (16+ km)
Ceiling: at least 12,000 feet AGL
Clouds: scattered clouds at 1100 feet AGL
Present Weather: no significant weather observed at this time
KMLB 290153Z 13012KT 10SM SCT011 27/24 A3012 RMK AO2 SLP197 T02670239

Conditions at: KMLB observed 29 April 2017  00:53 UTC
Temperature: 26.7°C (80°F)
Dewpoint: 23.3°C (74°F) [RH = 82%]
Pressure (altimeter): 30.10 inches Hg (1019.4 mb)
[Sea-level pressure: 1019.1 mb]
Winds: from the SE (130 degrees) at 9 MPH (8 knots; 4.2 m/s)
Visibility: 10 or more miles (16+ km)
Ceiling: at least 12,000 feet AGL
Clouds: few clouds at 1200 feet AGL
Present Weather: no significant weather observed at this time
KMLB 290053Z 13008KT 10SM FEW012 27/23 A3010 RMK AO2 SLP191 T02670233

Conditions at: KMLB observed 28 April 2017  23:53 UTC
Temperature: 27.2°C (81°F)
Dewpoint: 22.8°C (73°F) [RH = 77%]
Pressure (altimeter): 30.08 inches Hg (1018.7 mb)
[Sea-level pressure: 1018.6 mb]
Winds: from the SE (130 degrees) at 15 MPH (13 knots; 6.8 m/s)
Visibility: 10 or more miles (16+ km)
Ceiling: at least 12,000 feet AGL
Clouds: sky clear below 12,000 feet AGL
Present Weather: no significant weather observed at this time
KMLB 282353Z 13013KT 10SM CLR 27/23 A3008 RMK AO2 SLP186 T02720228 10306 20272 53006

Conditions at: KMLB observed 28 April 2017  22:53 UTC
Temperature: 28.3°C (83°F)
Dewpoint: 22.8°C (73°F) [RH = 72%]
Pressure (altimeter): 30.07 inches Hg (1018.4 mb)
[Sea-level pressure: 1018.2 mb]
Winds: from the SE (140 degrees) at 16 MPH (14 knots; 7.3 m/s)
gusting to 25 MPH (22 knots; 11.4 m/s)
Visibility: 10 or more miles (16+ km)
Ceiling: at least 12,000 feet AGL
Clouds: sky clear below 12,000 feet AGL
Present Weather: no significant weather observed at this time
KMLB 282253Z 14014G22KT 10SM CLR 28/23 A3007 RMK AO2 SLP182 T02830228

Conditions at: KMLB observed 28 April 2017  21:53 UTC
Temperature: 28.9°C (84°F)
Dewpoint: 22.8°C (73°F) [RH = 70%]
Pressure (altimeter): 30.07 inches Hg (1018.4 mb)
[Sea-level pressure: 1018.2 mb]
Winds: from the ESE (120 degrees) at 16 MPH (14 knots; 7.3 m/s)
gusting to 28 MPH (24 knots; 12.5 m/s)
Visibility: 10 or more miles (16+ km)
Ceiling: at least 12,000 feet AGL
Clouds: sky clear below 12,000 feet AGL
Present Weather: no significant weather observed at this time
KMLB 282153Z 12014G24KT 10SM CLR 29/23 A3007 RMK AO2 SLP182 T02890228

Conditions at: KMLB observed 28 April 2017  20:53 UTC
Temperature: 29.4°C (85°F)
Dewpoint: 22.2°C (72°F) [RH = 65%]
Pressure (altimeter): 30.07 inches Hg (1018.4 mb)
[Sea-level pressure: 1018.0 mb]
Winds: from the SE (130 degrees) at 17 MPH (15 knots; 7.8 m/s)
gusting to 26 MPH (23 knots; 12.0 m/s)
Visibility: 10 or more miles (16+ km)
Ceiling: at least 12,000 feet AGL
Clouds: sky clear below 12,000 feet AGL
Present Weather: no significant weather observed at this time
KMLB 282053Z 13015G23KT 10SM CLR 29/22 A3007 RMK AO2 SLP180 T02940222 58008

Conditions at: KMLB observed 28 April 2017  19:53 UTC
Temperature: 30.0°C (86°F)
Dewpoint: 22.8°C (73°F) [RH = 65%]
Pressure (altimeter): 30.08 inches Hg (1018.7 mb)
[Sea-level pressure: 1018.3 mb]
Winds: from the ESE (120 degrees) at 14 MPH (12 knots; 6.2 m/s)
gusting to 24 MPH (21 knots; 10.9 m/s)
Visibility: 10 or more miles (16+ km)
Ceiling: at least 12,000 feet AGL
Clouds: sky clear below 12,000 feet AGL
Present Weather: no significant weather observed at this time
KMLB 281953Z 12012G21KT 10SM CLR 30/23 A3008 RMK AO2 SLP183 T03000228

Conditions at: KMLB observed 28 April 2017  18:53 UTC
Temperature: 29.4°C (85°F)
Dewpoint: 22.8°C (73°F) [RH = 68%]
Pressure (altimeter): 30.08 inches Hg (1018.7 mb)
[Sea-level pressure: 1018.6 mb]
Winds: from the SE (130 degrees) at 18 MPH (16 knots; 8.3 m/s)
gusting to 26 MPH (23 knots; 12.0 m/s)
Visibility: 10 or more miles (16+ km)
Ceiling: at least 12,000 feet AGL
Clouds: scattered clouds at 5500 feet AGL
Present Weather: no significant weather observed at this time
KMLB 281853Z 13016G23KT 10SM SCT055 29/23 A3008 RMK AO2 SLP186 T02940228

Conditions at: KMLB observed 28 April 2017  17:53 UTC
Temperature: 30.6°C (87°F)
Dewpoint: 22.8°C (73°F) [RH = 63%]
Pressure (altimeter): 30.09 inches Hg (1019.0 mb)
[Sea-level pressure: 1018.9 mb]
Winds: from the SE (130 degrees) at 17 MPH (15 knots; 7.8 m/s)
gusting to 28 MPH (24 knots; 12.5 m/s)
Visibility: 10 or more miles (16+ km)
Ceiling: at least 12,000 feet AGL
Clouds: sky clear below 12,000 feet AGL
Present Weather: no significant weather observed at this time
KMLB 281753Z 13015G24KT 10SM CLR 31/23 A3009 RMK AO2 SLP189 T03060228 10311 20256 56004

Conditions at: KMLB observed 28 April 2017  16:53 UTC
Temperature: 30.6°C (87°F)
Dewpoint: 22.8°C (73°F) [RH = 63%]
Pressure (altimeter): 30.09 inches Hg (1019.0 mb)
[Sea-level pressure: 1018.9 mb]
Winds: from the ESE (120 degrees) at 17 MPH (15 knots; 7.8 m/s)
gusting to 25 MPH (22 knots; 11.4 m/s)
Visibility: 10 or more miles (16+ km)
Ceiling: at least 12,000 feet AGL
Clouds: scattered clouds at 3000 feet AGL
Present Weather: no significant weather observed at this time
KMLB 281653Z 12015G22KT 10SM SCT030 31/23 A3009 RMK AO2 SLP189 T03060228

Conditions at: KMLB observed 28 April 2017  15:53 UTC
Temperature: 30.0°C (86°F)
Dewpoint: 22.8°C (73°F) [RH = 65%]
Pressure (altimeter): 30.10 inches Hg (1019.4 mb)
[Sea-level pressure: 1019.2 mb]
Winds: from the SE (130 degrees) at 16 MPH (14 knots; 7.3 m/s)
Visibility: 10 or more miles (16+ km)
Ceiling: at least 12,000 feet AGL
Clouds: scattered clouds at 3000 feet AGL
Present Weather: no significant weather observed at this time
KMLB 281553Z 13014KT 10SM SCT030 30/23 A3010 RMK AO2 SLP192 T03000228